• Join FlightAware (Why Join?)
  • Login
  • US Flag 
01:25PM EDT


 

Airport Tracker/Info


-or-


 

Live Flight TrackerFlight Track Log ✈ EJA583 ✈ 12-Nov-2013 ✈ KPIE - 4R3

Flight Track Log - Related Links

Times and Time Zones

All times are in EST time to prevent confusion due to time zone crossing. See the EJA583 flight status page for this flight to view local times or setup timezone preferences in your user account.

Time Position Orientation Groundspeed Altitude Reporting Facility
EST Latitude Longitude Course Direction KTS MPH feet Rate Location/Type
12:41PM 27.9500 -82.7000 348° North 211 243 1,600  Level Tampa TRACON
12:42PM 28.0167 -82.7167 348° North 249 287 3,800 1,260 Climbing Tampa TRACON
12:43PM 28.0833 -82.7167 360° North 264 304 4,100 1,320 Climbing Tampa TRACON
12:45PM 28.2125 -82.7158 360° North 261 300 7,500 2,160 Climbing Jacksonville Center
12:46PM 28.2939 -82.7181 359° North 267 307 10,200 2,700 Climbing Jacksonville Center
12:47PM 28.3753 -82.7275 354° North 278 320 13,000 2,460 Climbing Jacksonville Center
12:48PM 28.4525 -82.7581 341° North 283 326 15,200 2,100 Climbing Jacksonville Center
12:49PM 28.5381 -82.7886 343° North 298 343 17,300 1,920 Climbing Jacksonville Center
12:50PM 28.6217 -82.8311 336° Northwest 313 360 19,100 1,680 Climbing Jacksonville Center
12:51PM 28.6819 -82.8808 324° Northwest 318 366 20,700 1,800 Climbing Jacksonville Center
12:52PM 28.7675 -82.9422 328° Northwest 328 377 22,700 1,920 Climbing Jacksonville Center
12:53PM 28.8447 -83.0064 324° Northwest 338 389 24,600 1,740 Climbing Jacksonville Center
12:54PM 28.9261 -83.0706 325° Northwest 343 395 26,200 1,500 Climbing Jacksonville Center
12:55PM 29.0094 -83.1372 325° Northwest 349 402 27,700 1,440 Climbing Jacksonville Center
12:56PM 29.0908 -83.2014 325° Northwest 354 407 29,100 1,260 Climbing Jacksonville Center
12:57PM 29.1719 -83.2658 325° Northwest 354 407 30,300 1,200 Climbing Jacksonville Center
12:58PM 29.2553 -83.3328 325° Northwest 359 413 31,600 1,260 Climbing Jacksonville Center
12:59PM 29.3386 -83.3975 326° Northwest 359 413 32,900 1,200 Climbing Jacksonville Center
01:00PM 29.4197 -83.4625 325° Northwest 359 413 34,000 540 Climbing Jacksonville Center
01:01PM 29.5008 -83.5272 325° Northwest 359 413 34,000  Level Jacksonville Center
01:02PM 29.5797 -83.5900 325° Northwest 354 407 34,000  Level Jacksonville Center
01:03PM 29.6567 -83.6503 326° Northwest 348 400 34,000  Level Jacksonville Center
01:04PM 29.7356 -83.7131 325° Northwest 348 400 34,000  Level Jacksonville Center
01:05PM 29.8186 -83.7783 326° Northwest 348 400 34,000  Level Jacksonville Center
01:06PM 29.8975 -83.8436 324° Northwest 353 406 34,000  Level Jacksonville Center
01:07PM 29.9786 -83.9069 326° Northwest 353 406 34,000  Level Jacksonville Center
01:08PM 30.0239 -83.9936 301° West 322 371 34,000  Level Jacksonville Center
01:09PM 30.0583 -84.0878 293° West 317 365 34,000  Level Jacksonville Center
01:10PM 30.1033 -84.1844 298° West 312 359 34,000  Level Jacksonville Center
01:11PM 30.1297 -84.2711 289° West 312 359 34,000  Level Jacksonville Center
01:12PM 30.1661 -84.3606 295° West 312 359 34,000  Level Jacksonville Center
01:13PM 30.2006 -84.4525 293° West 312 359 34,000  Level Jacksonville Center
01:14PM 30.2369 -84.5442 295° West 312 359 34,000  Level Jacksonville Center
01:15PM 30.2733 -84.6364 295° West 312 359 34,000  Level Jacksonville Center
01:16PM 30.3136 -84.7381 295° West 312 359 34,000  Level Jacksonville Center
01:17PM 30.3458 -84.8328 292° West 312 359 34,000 -60 Level Jacksonville Center
01:18PM 30.3819 -84.9250 294° West 312 359 33,900 -600 Descending Jacksonville Center
01:19PM 30.4200 -85.0219 294° West 317 365 32,900 -960 Descending Jacksonville Center
01:20PM 30.4578 -85.1217 294° West 322 371 32,000 -960 Descending Jacksonville Center
01:21PM 30.4958 -85.2214 294° West 329 379 31,000 -1,020 Descending Jacksonville Center
01:22PM 30.5336 -85.3189 294° West 334 384 30,000 -1,020 Descending Jacksonville Center
01:23PM 30.5861 -85.4117 303° West 339 390 29,000 -540 Descending Jacksonville Center
01:24PM 30.6553 -85.4981 313° West 351 404 29,000  Level Jacksonville Center
01:25PM 30.7203 -85.5819 312° West 357 411 29,000 -60 Level Jacksonville Center
01:26PM 30.7875 -85.6661 313° West 357 411 28,900 -600 Descending Jacksonville Center
01:27PM 30.8544 -85.7553 311° West 357 411 27,800 -1,320 Descending Jacksonville Center
01:28PM 30.9233 -85.8444 312° West 364 419 26,300 -1,500 Descending Jacksonville Center
01:29PM 30.9436 -85.9567 282° West 379 436 24,900 -1,380 Descending Jacksonville Center
01:30PM 30.9514 -86.0731 274° West 379 436 23,600 -1,260 Descending Jacksonville Center
01:31PM 30.9589 -86.1847 275° West 361 415 22,400 -1,200 Descending Jacksonville Center
01:32PM 30.9686 -86.2917 276° West 348 400 21,200 -1,200 Descending Jacksonville Center
01:33PM 30.9739 -86.4033 273° West 348 400 20,000 -1,200 Descending Jacksonville Center
01:34PM 30.9792 -86.5150 273° West 348 400 18,800 -1,140 Descending Jacksonville Center
01:35PM 30.9842 -86.6242 273° West 348 400 17,800 -1,020 Descending Jacksonville Center
01:36PM 30.9981 -86.7217 279° West 348 400 16,800 -1,140 Descending Jacksonville Center
01:37PM 31.0011 -86.8283 272° West 348 400 15,600 -1,320 Descending Jacksonville Center
01:38PM 31.0186 -86.9333 281° West 343 395 14,300 -1,260 Descending Jacksonville Center
01:39PM 31.0678 -87.0300 301° West 336 387 13,100 -1,200 Descending Jacksonville Center
01:41PM 31.1528 -87.2247 297° West 319 367 10,600 -1,200 Descending Houston Center
01:42PM 31.1750 -87.3047 288° West 271 312 9,400 -1,260 Descending Houston Center
01:43PM 31.1961 -87.3853 287° West 261 300 8,100 -1,260 Descending Houston Center
01:44PM 31.2200 -87.4672 289° West 264 304 6,900 -1,200 Descending Houston Center
01:45PM 31.2514 -87.5397 297° West 259 298 5,700 -1,260 Descending Houston Center
01:46PM 31.2983 -87.6147 306° West 246 283 4,300 -1,260 Descending Houston Center
01:47PM 31.3386 -87.6792 306° West 244 281 3,200 -1,020 Descending Houston Center
01:48PM 31.3786 -87.7439 306° West 245 282 2,200 -1,020 Descending Houston Center